Time;durP1;ratioP1;P1;durP2;ratioP2;P2;SDS_P1;SDS_P2;PMS_P1;PMS_P2;Temp;Humidity;BMP_temperature;BMP_pressure;BME280_temperature;BME280_humidity;BME280_pressure;Samples;Min_cycle;Max_cycle;Signal;HPM_P1;HPM_P2
2021/07/22 00:00:05;;;;;;;6.07;3.60;;;21.10;71.90;;;;;;5072337;28;20040;-63
2021/07/22 00:02:31;;;;;;;6.40;3.85;;;21.10;72.10;;;;;;5071665;28;20052;-63
2021/07/22 00:04:57;;;;;;;6.05;4.05;;;21.00;71.70;;;;;;5072092;28;20028;-63
2021/07/22 00:07:23;;;;;;;6.53;3.85;;;21.10;71.70;;;;;;5072038;28;20078;-63
2021/07/22 00:09:48;;;;;;;5.80;3.50;;;21.10;71.90;;;;;;5072238;28;20674;-63
2021/07/22 00:12:14;;;;;;;6.60;3.75;;;21.00;71.70;;;;;;5072087;28;20711;-63
2021/07/22 00:14:41;;;;;;;6.40;3.85;;;21.10;71.40;;;;;;5066167;28;20024;-63
2021/07/22 00:17:08;;;;;;;6.60;3.60;;;21.00;71.20;;;;;;5071624;28;20108;-61
2021/07/22 00:19:35;;;;;;;6.15;3.70;;;21.00;71.20;;;;;;5071694;28;20464;-61
2021/07/22 00:22:01;;;;;;;5.88;3.63;;;21.00;71.00;;;;;;5053711;28;20490;-61
2021/07/22 00:24:28;;;;;;;5.82;3.42;;;21.00;70.90;;;;;;5071877;28;20025;-62
2021/07/22 00:26:54;;;;;;;6.32;3.67;;;20.90;71.00;;;;;;5053827;28;20021;-62
2021/07/22 00:29:20;;;;;;;6.32;3.72;;;21.00;71.10;;;;;;5071618;28;20541;-62
2021/07/22 00:31:46;;;;;;;6.15;3.58;;;20.90;71.00;;;;;;5053830;28;20047;-62
2021/07/22 00:34:12;;;;;;;6.82;3.53;;;20.90;71.10;;;;;;5071582;28;20046;-62
2021/07/22 00:36:37;;;;;;;6.20;3.75;;;20.90;71.20;;;;;;5071585;28;20028;-62
2021/07/22 00:39:03;;;;;;;6.13;3.65;;;20.90;71.10;;;;;;5053319;28;20471;-62
2021/07/22 00:41:29;;;;;;;5.82;3.70;;;20.80;71.30;;;;;;5071483;28;20070;-62
2021/07/22 00:43:55;;;;;;;5.50;3.40;;;20.80;71.40;;;;;;5071568;28;20035;-62
2021/07/22 00:46:21;;;;;;;5.45;3.40;;;20.80;71.60;;;;;;5071448;28;20483;-62
2021/07/22 00:48:47;;;;;;;4.90;3.20;;;20.80;71.80;;;;;;5071567;28;20035;-62
2021/07/22 00:51:13;;;;;;;5.65;3.60;;;20.80;71.90;;;;;;5071566;28;20025;-63
2021/07/22 00:53:39;;;;;;;6.88;3.80;;;20.80;71.80;;;;;;5071508;28;20020;-63
2021/07/22 00:56:05;;;;;;;6.70;3.97;;;20.70;71.50;;;;;;5071646;28;20364;-63
2021/07/22 00:58:31;;;;;;;6.13;3.72;;;20.70;71.60;;;;;;5071316;28;20522;-63
2021/07/22 01:00:56;;;;;;;5.70;3.60;;;20.60;71.70;;;;;;5071323;28;20020;-63
2021/07/22 01:03:22;;;;;;;6.15;3.70;;;20.60;71.70;;;;;;5071370;28;20523;-62
2021/07/22 01:05:48;;;;;;;5.88;3.50;;;20.60;71.60;;;;;;5071577;28;20827;-61
2021/07/22 01:08:13;;;;;;;5.95;3.45;;;20.60;71.50;;;;;;5074921;28;20077;-61
2021/07/22 01:10:39;;;;;;;6.30;3.38;;;20.60;71.60;;;;;;5075450;28;20111;-63
2021/07/22 01:13:05;;;;;;;5.25;3.22;;;20.60;72.10;;;;;;5075422;28;20512;-63
2021/07/22 01:15:31;;;;;;;5.90;3.47;;;20.60;71.20;;;;;;5075203;28;20048;-63
2021/07/22 01:17:57;;;;;;;5.72;3.40;;;20.60;71.00;;;;;;5075254;28;20016;-63
2021/07/22 01:20:25;;;;;;;6.60;3.58;;;20.60;71.10;;;;;;5075091;28;20498;-64
2021/07/22 01:22:53;;;;;;;5.25;3.42;;;20.60;71.20;;;;;;5057321;28;20391;-62
2021/07/22 01:25:19;;;;;;;5.75;3.30;;;20.60;71.20;;;;;;5075002;28;20041;-62
2021/07/22 01:27:45;;;;;;;5.60;3.00;;;20.60;71.10;;;;;;5074829;28;20025;-62
2021/07/22 01:30:12;;;;;;;5.70;3.40;;;20.60;71.10;;;;;;5074947;28;20476;-62
2021/07/22 01:32:39;;;;;;;5.90;3.20;;;20.60;71.10;;;;;;5075079;28;20068;-62
2021/07/22 01:35:05;;;;;;;5.40;3.30;;;20.60;70.90;;;;;;5074739;28;20070;-62
2021/07/22 01:37:31;;;;;;;6.18;3.30;;;20.60;70.90;;;;;;5074844;28;20472;-62
2021/07/22 01:39:58;;;;;;;5.68;3.05;;;20.60;70.80;;;;;;5074789;28;20064;-62
2021/07/22 01:42:23;;;;;;;4.88;2.90;;;20.60;70.90;;;;;;5074624;28;20103;-62
2021/07/22 01:44:49;;;;;;;5.20;2.80;;;20.60;70.80;;;;;;5074881;28;20547;-62
2021/07/22 01:47:15;;;;;;;7.05;3.58;;;20.60;70.70;;;;;;5074453;28;20372;-62
2021/07/22 01:49:41;;;;;;;6.13;3.10;;;20.60;70.40;;;;;;5074677;28;20032;-62
2021/07/22 01:52:07;;;;;;;5.70;3.28;;;20.60;70.50;;;;;;5074542;28;20486;-62
2021/07/22 01:54:33;;;;;;;5.53;3.17;;;20.60;70.50;;;;;;5074619;28;20039;-62
2021/07/22 01:57:00;;;;;;;5.60;2.95;;;20.60;70.30;;;;;;5056426;28;20446;-62
2021/07/22 01:59:35;;;;;;;5.72;2.95;;;20.60;70.20;;;;;;5066170;28;20455;-63
2021/07/22 02:02:10;;;;;;;6.43;2.90;;;20.60;69.80;;;;;;5056385;28;20047;-63
2021/07/22 02:04:39;;;;;;;6.22;3.00;;;20.70;69.30;;;;;;5074605;28;20136;-62
2021/07/22 02:07:05;;;;;;;4.78;2.70;;;20.60;68.60;;;;;;5074527;28;20035;-62
2021/07/22 02:09:31;;;;;;;4.75;2.80;;;20.60;68.40;;;;;;5074608;28;20040;-62
2021/07/22 02:11:58;;;;;;;4.93;2.50;;;20.60;68.40;;;;;;5074553;28;20042;-62
2021/07/22 02:14:24;;;;;;;4.95;3.00;;;20.50;68.40;;;;;;5068816;28;20028;-62
2021/07/22 02:16:50;;;;;;;4.50;2.80;;;20.50;68.50;;;;;;5074163;28;20032;-62
2021/07/22 02:19:16;;;;;;;4.95;2.90;;;20.40;68.60;;;;;;5073652;28;20032;-62
2021/07/22 02:21:42;;;;;;;4.93;2.75;;;20.40;68.90;;;;;;5074130;28;20474;-62
2021/07/22 02:24:09;;;;;;;5.28;2.90;;;20.30;68.90;;;;;;5073896;28;20086;-62
2021/07/22 02:26:36;;;;;;;5.63;3.40;;;20.30;69.10;;;;;;5055862;28;20070;-62
2021/07/22 02:29:02;;;;;;;6.40;2.80;;;20.30;69.40;;;;;;5073876;28;20558;-62
2021/07/22 02:31:27;;;;;;;5.25;2.83;;;20.30;69.60;;;;;;5073880;28;20479;-62
2021/07/22 02:33:53;;;;;;;4.32;2.80;;;20.30;69.80;;;;;;5073962;28;20138;-62
2021/07/22 02:36:19;;;;;;;5.03;2.63;;;20.30;70.00;;;;;;5073737;28;20025;-62
2021/07/22 02:38:45;;;;;;;5.10;3.00;;;20.30;70.00;;;;;;5073556;28;20115;-62
2021/07/22 02:41:11;;;;;;;6.13;3.20;;;20.30;70.10;;;;;;5073937;28;20107;-62
2021/07/22 02:43:37;;;;;;;4.97;3.00;;;20.30;70.10;;;;;;5073734;28;20020;-62
2021/07/22 02:46:10;;;;;;;6.13;3.30;;;20.30;69.90;;;;;;5073644;28;20024;-62
2021/07/22 02:48:36;;;;;;;5.72;3.28;;;20.20;70.00;;;;;;5073592;28;20035;-62
2021/07/22 02:51:03;;;;;;;7.70;3.75;;;20.10;70.10;;;;;;5073485;28;20020;-62
2021/07/22 02:53:28;;;;;;;6.25;3.47;;;20.00;70.30;;;;;;5073524;28;20067;-62
2021/07/22 02:56:04;;;;;;;5.90;3.75;;;20.00;70.60;;;;;;5073591;28;20060;-62
2021/07/22 02:58:31;;;;;;;5.65;3.30;;;20.00;71.10;;;;;;5055551;28;20033;-62
2021/07/22 03:00:57;;;;;;;6.43;3.30;;;20.00;71.00;;;;;;5073476;28;20123;-62
2021/07/22 03:03:23;;;;;;;6.25;3.25;;;20.00;71.30;;;;;;5073278;28;20503;-62
2021/07/22 03:05:49;;;;;;;5.32;3.28;;;20.00;71.40;;;;;;5073139;28;20103;-62
2021/07/22 03:08:15;;;;;;;6.00;3.75;;;20.00;71.40;;;;;;5073178;28;20020;-62
2021/07/22 03:10:41;;;;;;;7.18;3.78;;;20.00;71.40;;;;;;5073192;28;20027;-62
2021/07/22 03:13:07;;;;;;;6.65;3.63;;;20.00;71.50;;;;;;5072770;28;20044;-62
2021/07/22 03:15:33;;;;;;;5.68;3.65;;;20.00;71.50;;;;;;5072809;28;20056;-62
2021/07/22 03:17:58;;;;;;;6.28;3.40;;;20.00;71.80;;;;;;5055050;28;20025;-62
2021/07/22 03:20:24;;;;;;;5.80;3.90;;;20.00;71.80;;;;;;5064578;28;20036;-62
2021/07/22 03:22:50;;;;;;;7.10;3.80;;;20.00;71.80;;;;;;5053081;28;20025;-62
2021/07/22 03:25:16;;;;;;;9.57;4.72;;;20.00;71.60;;;;;;5052117;28;20117;-64
2021/07/22 03:27:41;;;;;;;6.72;4.40;;;20.00;71.60;;;;;;5052628;28;20025;-60
2021/07/22 03:30:08;;;;;;;10.38;3.92;;;20.00;71.50;;;;;;5051855;28;20483;-63
2021/07/22 03:32:38;;;;;;;6.07;3.65;;;20.00;71.50;;;;;;5034654;28;20025;-63
2021/07/22 03:35:05;;;;;;;5.97;3.80;;;20.00;71.50;;;;;;5051648;28;20024;-62
2021/07/22 03:37:31;;;;;;;7.38;4.50;;;20.00;71.40;;;;;;5052421;28;20060;-61
2021/07/22 03:39:57;;;;;;;6.97;4.18;;;19.90;71.60;;;;;;5052520;28;20032;-62
2021/07/22 03:42:25;;;;;;;6.03;4.18;;;19.90;71.80;;;;;;5052057;28;20029;-62
2021/07/22 03:44:53;;;;;;;5.40;3.70;;;19.90;72.00;;;;;;5052788;28;20151;-61
2021/07/22 03:47:19;;;;;;;7.25;4.97;;;19.80;72.00;;;;;;5052232;28;20025;-61
2021/07/22 03:49:45;;;;;;;7.85;5.60;;;19.80;72.20;;;;;;5052514;28;20056;-61
2021/07/22 03:52:12;;;;;;;6.70;5.18;;;19.80;72.50;;;;;;5051261;28;20032;-63
2021/07/22 03:54:38;;;;;;;9.32;6.85;;;19.70;72.70;;;;;;5051507;28;20025;-62
2021/07/22 03:57:04;;;;;;;7.78;6.45;;;19.70;72.70;;;;;;5051841;28;20480;-62
2021/07/22 03:59:30;;;;;;;7.45;5.45;;;19.60;72.80;;;;;;5052050;28;20100;-62
2021/07/22 04:01:55;;;;;;;7.20;5.50;;;19.60;72.80;;;;;;5051348;28;20512;-62
2021/07/22 04:04:21;;;;;;;8.38;5.10;;;19.50;72.90;;;;;;5052178;28;20077;-63
2021/07/22 04:06:47;;;;;;;6.53;4.63;;;19.50;72.80;;;;;;5051745;28;20033;-63
2021/07/22 04:09:12;;;;;;;8.45;4.75;;;19.50;73.00;;;;;;5052264;28;20029;-61
2021/07/22 04:11:38;;;;;;;6.35;4.50;;;19.50;73.00;;;;;;5051808;28;20029;-63
2021/07/22 04:14:04;;;;;;;6.60;4.68;;;19.40;73.10;;;;;;5060518;28;20029;-63
2021/07/22 04:16:30;;;;;;;6.78;4.95;;;19.40;73.20;;;;;;5067969;28;20412;-63
2021/07/22 04:18:56;;;;;;;7.45;5.28;;;19.40;73.20;;;;;;5051484;28;20108;-61
2021/07/22 04:21:21;;;;;;;7.53;5.05;;;19.40;73.40;;;;;;5036514;28;20373;-62
2021/07/22 04:23:47;;;;;;;6.70;4.78;;;19.50;73.40;;;;;;5051500;28;20029;-62
2021/07/22 04:26:17;;;;;;;7.22;4.90;;;19.50;73.50;;;;;;5051657;28;20025;-64
2021/07/22 04:28:44;;;;;;;7.72;4.80;;;19.60;73.30;;;;;;5051626;28;20410;-62
2021/07/22 04:31:15;;;;;;;7.00;4.78;;;19.60;73.10;;;;;;5032623;28;20350;-63
2021/07/22 04:33:41;;;;;;;6.93;4.55;;;19.60;73.40;;;;;;5051558;28;20104;-63
2021/07/22 04:36:07;;;;;;;6.90;4.90;;;19.60;73.50;;;;;;5050888;28;20112;-62
2021/07/22 04:38:37;;;;;;;8.98;5.00;;;19.70;73.60;;;;;;5051072;28;20037;-62
2021/07/22 04:41:06;;;;;;;8.48;5.10;;;19.70;73.00;;;;;;5033373;28;20788;-63
2021/07/22 04:43:32;;;;;;;6.78;4.90;;;19.70;72.90;;;;;;5051297;28;20486;-63
2021/07/22 04:46:02;;;;;;;6.28;4.43;;;19.70;72.80;;;;;;5051053;28;20021;-63
2021/07/22 04:48:29;;;;;;;7.53;5.43;;;19.70;73.00;;;;;;5050914;28;20047;-63
2021/07/22 04:50:54;;;;;;;7.55;4.60;;;19.70;72.80;;;;;;5050915;28;20032;-62
2021/07/22 04:53:20;;;;;;;7.22;4.90;;;19.70;72.90;;;;;;5050879;28;20099;-61
2021/07/22 04:55:46;;;;;;;6.68;4.82;;;19.70;72.80;;;;;;5051366;28;20029;-62
2021/07/22 04:58:11;;;;;;;9.07;5.32;;;19.70;72.70;;;;;;5051072;28;20140;-61
2021/07/22 05:00:37;;;;;;;7.78;5.20;;;19.80;72.40;;;;;;5051000;28;20025;-62
2021/07/22 05:03:03;;;;;;;6.80;5.20;;;19.80;72.60;;;;;;5050472;28;20492;-62
2021/07/22 05:05:30;;;;;;;6.97;5.20;;;19.80;72.60;;;;;;5051164;28;20025;-62
2021/07/22 05:07:57;;;;;;;7.30;5.45;;;19.80;73.10;;;;;;5050924;28;20017;-62
2021/07/22 05:10:22;;;;;;;9.07;5.00;;;19.90;72.40;;;;;;5050892;28;20035;-63
2021/07/22 05:12:48;;;;;;;6.93;5.20;;;19.90;72.50;;;;;;5035269;28;20120;-63
2021/07/22 05:15:14;;;;;;;8.90;5.30;;;19.90;72.50;;;;;;5030676;28;20025;-61
2021/07/22 05:17:39;;;;;;;7.53;5.78;;;19.90;72.10;;;;;;5030796;28;20440;-62
2021/07/22 05:20:06;;;;;;;7.10;5.20;;;19.90;72.10;;;;;;5034609;28;20033;-63
2021/07/22 05:22:32;;;;;;;6.70;5.20;;;19.90;72.30;;;;;;5037933;28;20079;-63
2021/07/22 05:24:58;;;;;;;7.72;5.53;;;20.00;73.20;;;;;;5031999;28;20040;-62
2021/07/22 05:27:24;;;;;;;7.90;5.47;;;20.00;72.50;;;;;;5030758;28;20464;-62
2021/07/22 05:29:49;;;;;;;10.55;5.38;;;20.10;72.30;;;;;;5030570;28;20025;-63
2021/07/22 05:32:15;;;;;;;10.98;6.45;;;20.10;72.30;;;;;;5046000;28;20420;-63
2021/07/22 05:34:41;;;;;;;6.78;5.47;;;20.10;72.00;;;;;;5037021;28;20044;-62
2021/07/22 05:37:07;;;;;;;7.18;5.30;;;20.10;71.90;;;;;;5038307;28;20025;-62
2021/07/22 05:39:34;;;;;;;7.03;5.47;;;20.20;72.10;;;;;;5050699;28;20056;-62
2021/07/22 05:42:00;;;;;;;7.00;5.30;;;20.20;71.80;;;;;;5049485;28;20025;-62
2021/07/22 05:44:25;;;;;;;7.65;5.47;;;20.20;71.50;;;;;;5050066;28;20025;-61
2021/07/22 05:46:51;;;;;;;7.05;5.22;;;20.20;71.50;;;;;;5034467;28;20033;-62
2021/07/22 05:49:17;;;;;;;6.50;4.97;;;20.20;71.10;;;;;;5032052;28;20037;-62
2021/07/22 05:51:42;;;;;;;7.05;5.78;;;20.20;70.60;;;;;;5030824;28;20026;-63
2021/07/22 05:54:11;;;;;;;7.40;5.40;;;20.30;70.50;;;;;;5050102;28;20025;-62
2021/07/22 05:56:37;;;;;;;7.63;5.18;;;20.20;70.30;;;;;;5054233;28;20547;-64
2021/07/22 05:59:02;;;;;;;7.18;5.50;;;20.20;70.50;;;;;;5042407;28;20075;-64
2021/07/22 06:01:28;;;;;;;7.78;5.25;;;20.40;70.40;;;;;;5035310;28;20057;-64
2021/07/22 06:03:54;;;;;;;6.60;5.30;;;20.40;70.40;;;;;;5053206;28;20056;-62
2021/07/22 06:06:20;;;;;;;7.13;5.40;;;20.50;70.50;;;;;;5053485;28;20068;-62
2021/07/22 06:08:45;;;;;;;8.55;5.32;;;20.50;70.40;;;;;;5053334;28;20737;-62
2021/07/22 06:11:14;;;;;;;7.65;5.43;;;20.50;70.60;;;;;;5054293;28;20037;-63
2021/07/22 06:13:41;;;;;;;8.00;6.05;;;20.60;70.60;;;;;;5056286;28;20060;-62
2021/07/22 06:16:10;;;;;;;7.15;5.43;;;20.60;70.30;;;;;;5053492;28;20054;-62
2021/07/22 06:18:37;;;;;;;8.57;5.80;;;20.60;70.30;;;;;;5053340;28;20049;-63
2021/07/22 06:21:02;;;;;;;8.75;5.10;;;20.60;70.90;;;;;;5054099;28;20056;-62
2021/07/22 06:23:28;;;;;;;7.50;5.55;;;20.70;70.90;;;;;;5053558;28;20456;-63
2021/07/22 06:25:58;;;;;;;9.10;5.85;;;20.80;70.80;;;;;;5052884;28;20025;-62
2021/07/22 06:28:24;;;;;;;8.18;5.55;;;20.90;70.70;;;;;;5053505;28;20025;-63
2021/07/22 06:30:51;;;;;;;8.55;5.70;;;20.90;70.30;;;;;;5053149;28;20067;-63
2021/07/22 06:33:16;;;;;;;7.47;5.78;;;21.10;70.40;;;;;;5053467;28;20031;-63
2021/07/22 06:35:42;;;;;;;9.30;5.75;;;21.20;70.20;;;;;;5053181;28;20386;-62
2021/07/22 06:38:07;;;;;;;7.95;5.80;;;21.30;69.50;;;;;;5052857;28;20468;-63
2021/07/22 06:40:35;;;;;;;6.68;5.13;;;21.40;69.30;;;;;;5052461;28;20111;-62
2021/07/22 06:43:00;;;;;;;7.72;5.47;;;21.50;69.20;;;;;;5053448;28;20056;-62
2021/07/22 06:45:26;;;;;;;7.72;5.35;;;21.60;68.70;;;;;;5052697;28;20049;-62
2021/07/22 06:47:51;;;;;;;8.25;5.30;;;21.80;67.90;;;;;;5053472;28;20025;-63
2021/07/22 06:50:17;;;;;;;7.85;4.90;;;21.80;67.60;;;;;;5052535;28;20025;-63
2021/07/22 06:52:43;;;;;;;7.65;5.10;;;21.90;67.90;;;;;;5053175;28;20033;-63
2021/07/22 06:55:09;;;;;;;7.57;4.63;;;22.00;67.30;;;;;;5053313;28;20104;-63
2021/07/22 06:57:35;;;;;;;6.90;4.80;;;22.10;67.30;;;;;;5053224;28;20032;-62
2021/07/22 07:00:01;;;;;;;7.25;4.95;;;22.30;67.20;;;;;;5052989;28;20037;-63
2021/07/22 07:02:28;;;;;;;7.18;4.68;;;22.30;66.40;;;;;;5052928;28;20848;-63
2021/07/22 07:04:53;;;;;;;7.32;4.90;;;22.40;66.60;;;;;;5033930;28;20793;-62
2021/07/22 07:07:19;;;;;;;7.35;4.88;;;22.50;66.80;;;;;;5052949;28;20151;-62
2021/07/22 07:09:45;;;;;;;7.20;4.45;;;22.60;66.50;;;;;;5052977;28;20030;-63
2021/07/22 07:12:11;;;;;;;6.25;4.68;;;22.60;66.20;;;;;;5045211;28;20036;-63
2021/07/22 07:14:37;;;;;;;7.13;4.43;;;22.70;65.50;;;;;;5045813;28;20033;-63
2021/07/22 07:17:03;;;;;;;7.40;4.90;;;22.70;65.60;;;;;;5052186;28;20074;-63
2021/07/22 07:19:29;;;;;;;7.05;4.35;;;22.80;65.90;;;;;;5052020;28;20055;-62
2021/07/22 07:21:55;;;;;;;6.00;4.03;;;22.90;65.40;;;;;;5052341;28;20033;-63
2021/07/22 07:24:21;;;;;;;8.38;4.55;;;23.00;64.90;;;;;;5052993;28;20372;-63
2021/07/22 07:26:46;;;;;;;6.88;3.97;;;23.10;64.30;;;;;;5051528;28;20028;-63
2021/07/22 07:29:12;;;;;;;6.20;4.10;;;23.10;64.40;;;;;;5052614;28;20036;-63
2021/07/22 07:31:38;;;;;;;5.68;3.90;;;23.30;63.60;;;;;;5058814;28;20036;-63
2021/07/22 07:34:04;;;;;;;5.90;3.70;;;23.40;62.70;;;;;;5068224;28;20139;-63
2021/07/22 07:36:30;;;;;;;5.43;3.40;;;23.40;62.70;;;;;;5059394;28;20107;-63
2021/07/22 07:38:55;;;;;;;5.80;3.70;;;23.60;62.10;;;;;;5065998;28;20035;-63
2021/07/22 07:41:21;;;;;;;5.53;3.70;;;23.70;61.00;;;;;;5072087;28;20471;-62
2021/07/22 07:43:47;;;;;;;7.03;3.97;;;23.70;60.70;;;;;;5063663;28;20032;-63
2021/07/22 07:46:12;;;;;;;6.10;3.60;;;23.70;60.90;;;;;;5052288;28;20448;-63
2021/07/22 07:48:38;;;;;;;7.70;3.60;;;23.80;60.70;;;;;;5052300;28;20043;-63
2021/07/22 07:51:08;;;;;;;5.25;2.90;;;23.90;60.10;;;;;;5052323;28;20056;-63
2021/07/22 07:53:34;;;;;;;4.32;2.35;;;24.00;58.90;;;;;;5052853;28;20067;-66
2021/07/22 07:55:59;;;;;;;4.82;2.80;;;24.10;57.60;;;;;;5052140;28;20061;-64
2021/07/22 07:58:25;;;;;;;5.85;2.90;;;24.20;57.80;;;;;;5051521;28;20543;-64
2021/07/22 08:00:51;;;;;;;5.53;2.80;;;24.30;58.40;;;;;;5052117;28;20423;-62
2021/07/22 08:03:20;;;;;;;4.72;2.85;;;24.50;59.00;;;;;;5037732;28;20037;-64
2021/07/22 08:05:47;;;;;;;5.85;3.30;;;24.60;58.30;;;;;;5031267;28;20135;-64
2021/07/22 08:08:14;;;;;;;4.55;2.78;;;24.80;58.30;;;;;;5031454;28;20056;-64
2021/07/22 08:10:43;;;;;;;4.60;2.58;;;25.00;58.50;;;;;;5013329;28;20026;-63
2021/07/22 08:13:10;;;;;;;4.63;2.70;;;25.10;58.20;;;;;;5030898;28;20018;-63
2021/07/22 08:15:37;;;;;;;4.55;2.67;;;25.40;58.40;;;;;;5030832;28;20127;-63
2021/07/22 08:18:03;;;;;;;5.65;2.45;;;25.60;57.10;;;;;;5031492;28;20087;-63
2021/07/22 08:20:29;;;;;;;5.45;2.10;;;25.80;56.00;;;;;;5029310;28;20026;-63
2021/07/22 08:22:54;;;;;;;4.55;2.30;;;26.00;57.10;;;;;;5037652;28;20380;-63
2021/07/22 08:25:20;;;;;;;3.88;2.00;;;26.10;56.10;;;;;;5031675;28;20029;-63
2021/07/22 08:27:46;;;;;;;3.78;2.17;;;26.40;55.70;;;;;;5031516;28;20052;-62
2021/07/22 08:30:13;;;;;;;5.32;2.30;;;26.60;53.70;;;;;;5029215;28;20060;-63
2021/07/22 08:32:38;;;;;;;4.15;2.28;;;26.60;52.40;;;;;;5025941;28;20080;-62
2021/07/22 08:35:05;;;;;;;3.85;2.15;;;26.80;52.50;;;;;;5022487;28;20021;-63
2021/07/22 08:37:30;;;;;;;4.10;2.15;;;26.90;52.70;;;;;;5025584;28;20025;-63
2021/07/22 08:40:00;;;;;;;3.70;2.22;;;27.00;52.20;;;;;;5022569;28;20385;-61
2021/07/22 08:42:27;;;;;;;5.28;2.13;;;27.20;51.90;;;;;;5020848;28;20408;-63
2021/07/22 08:44:55;;;;;;;5.35;2.10;;;27.40;51.90;;;;;;5031477;28;20450;-61
2021/07/22 08:47:21;;;;;;;4.55;2.30;;;27.60;51.40;;;;;;5024347;28;20140;-64
2021/07/22 08:49:47;;;;;;;3.40;1.90;;;27.70;50.80;;;;;;5015538;28;20034;-63
2021/07/22 08:52:13;;;;;;;3.53;2.00;;;27.90;50.10;;;;;;5024877;28;20020;-63
2021/07/22 08:54:39;;;;;;;4.15;2.10;;;28.00;50.30;;;;;;5031044;28;20025;-62
2021/07/22 08:57:07;;;;;;;4.40;2.20;;;28.20;49.70;;;;;;5051085;28;20108;-64
2021/07/22 08:59:33;;;;;;;3.53;1.90;;;28.40;49.60;;;;;;5039525;28;20041;-62
2021/07/22 09:02:00;;;;;;;4.10;2.20;;;28.70;49.40;;;;;;5031275;28;20136;-62
2021/07/22 09:04:28;;;;;;;3.50;2.20;;;29.00;47.70;;;;;;5051075;28;20124;-63
2021/07/22 09:06:54;;;;;;;3.55;1.85;;;29.10;48.10;;;;;;5050960;28;20071;-63
2021/07/22 09:09:20;;;;;;;4.32;2.00;;;29.30;48.30;;;;;;5050997;28;20427;-62
2021/07/22 09:11:56;;;;;;;3.75;1.92;;;29.40;47.10;;;;;;5065466;28;20425;-63
2021/07/22 09:14:24;;;;;;;4.43;1.98;;;29.50;45.80;;;;;;5031654;28;20029;-63
2021/07/22 09:16:50;;;;;;;4.18;1.90;;;29.60;46.30;;;;;;5031807;28;20504;-63
2021/07/22 09:19:36;;;;;;;4.65;2.20;;;29.80;46.00;;;;;;5034437;28;20488;-63
2021/07/22 09:22:07;;;;;;;4.07;1.90;;;30.00;44.70;;;;;;5041297;28;20116;-63
2021/07/22 09:24:53;;;;;;;3.22;1.90;;;30.10;45.70;;;;;;5048375;28;20025;-63
2021/07/22 09:27:42;;;;;;;4.43;2.05;;;30.40;45.30;;;;;;5047472;28;20052;-63
2021/07/22 09:30:18;;;;;;;4.47;2.20;;;30.60;45.10;;;;;;5054197;28;20029;-63
2021/07/22 09:32:47;;;;;;;3.78;2.05;;;30.90;43.50;;;;;;5044413;28;20028;-62
2021/07/22 09:35:21;;;;;;;3.45;2.05;;;30.90;43.90;;;;;;5054446;28;20025;-63
2021/07/22 09:37:51;;;;;;;4.00;2.00;;;31.10;43.90;;;;;;5051681;28;20025;-63
2021/07/22 09:40:26;;;;;;;5.18;2.15;;;31.20;43.50;;;;;;5049037;28;20502;-62
2021/07/22 09:42:56;;;;;;;3.97;1.90;;;31.40;42.90;;;;;;5042459;28;20038;-62
2021/07/22 09:45:28;;;;;;;3.47;1.95;;;31.50;42.70;;;;;;5045202;28;20040;-64
2021/07/22 09:47:55;;;;;;;5.68;2.10;;;31.60;42.10;;;;;;5051725;28;20037;-63
2021/07/22 09:50:23;;;;;;;3.53;1.80;;;31.70;41.40;;;;;;5021308;28;20037;-63
2021/07/22 09:53:06;;;;;;;3.72;2.00;;;31.60;40.80;;;;;;5060132;28;20028;-62
2021/07/22 09:55:33;;;;;;;3.47;1.85;;;31.60;40.70;;;;;;5051101;28;20033;-63
2021/07/22 09:58:01;;;;;;;3.80;2.10;;;31.60;41.60;;;;;;5051594;28;20025;-63
2021/07/22 10:00:28;;;;;;;4.68;1.95;;;31.60;41.60;;;;;;5040828;28;20033;-63
2021/07/22 10:02:58;;;;;;;3.33;1.80;;;31.80;41.60;;;;;;5027110;28;20522;-63
2021/07/22 10:05:27;;;;;;;4.45;2.05;;;31.90;41.20;;;;;;5074446;28;20035;-63
2021/07/22 10:07:54;;;;;;;3.00;1.70;;;32.10;41.10;;;;;;5073918;28;20012;-63
2021/07/22 10:10:25;;;;;;;3.55;1.80;;;32.30;41.40;;;;;;5067159;28;20017;-63
2021/07/22 10:13:00;;;;;;;2.90;1.60;;;32.60;41.00;;;;;;5056597;28;20133;-64
2021/07/22 10:15:29;;;;;;;5.10;2.00;;;32.90;40.30;;;;;;5045957;28;20037;-61
2021/07/22 10:17:56;;;;;;;3.80;2.00;;;33.10;40.50;;;;;;5058751;28;20108;-64
2021/07/22 10:20:31;;;;;;;3.10;1.73;;;33.30;40.40;;;;;;5046007;28;20365;-63
2021/07/22 10:22:58;;;;;;;3.67;1.92;;;33.60;40.60;;;;;;5052313;28;20020;-64
2021/07/22 10:25:25;;;;;;;3.38;1.83;;;33.90;39.90;;;;;;5050684;28;20365;-63
2021/07/22 10:27:53;;;;;;;3.03;1.60;;;34.00;39.90;;;;;;5040334;28;20025;-63
2021/07/22 10:30:20;;;;;;;2.75;1.67;;;34.20;40.00;;;;;;5033973;28;20025;-63
2021/07/22 10:32:52;;;;;;;3.88;1.98;;;34.40;39.20;;;;;;5035620;28;20142;-62
2021/07/22 10:35:21;;;;;;;3.53;1.70;;;34.50;38.40;;;;;;5049363;28;20029;-63
2021/07/22 10:38:09;;;;;;;3.35;1.80;;;34.60;38.70;;;;;;5043056;28;20112;-63
2021/07/22 10:40:44;;;;;;;4.25;1.90;;;34.80;38.50;;;;;;5037611;28;20117;-63
2021/07/22 10:43:39;;;;;;;2.85;1.60;;;35.00;38.30;;;;;;5067927;28;20025;-63
2021/07/22 10:46:20;;;;;;;3.20;1.85;;;35.20;38.20;;;;;;5073480;28;20028;-63
2021/07/22 10:48:47;;;;;;;5.18;2.00;;;35.30;37.90;;;;;;5052632;28;20032;-65
2021/07/22 10:51:14;;;;;;;3.63;1.80;;;35.30;37.40;;;;;;5053557;28;20025;-62
2021/07/22 10:53:59;;;;;;;3.47;1.80;;;34.80;37.50;;;;;;5053231;28;20063;-62
2021/07/22 10:56:43;;;;;;;3.60;1.70;;;34.30;37.10;;;;;;5053301;28;20061;-64
2021/07/22 10:59:09;;;;;;;3.38;1.55;;;34.10;37.80;;;;;;5068473;28;20028;-62
2021/07/22 11:01:43;;;;;;;3.90;1.70;;;34.30;37.70;;;;;;5063088;28;20021;-63
2021/07/22 11:04:34;;;;;;;3.80;1.70;;;34.60;36.30;;;;;;5047943;28;20037;-62
2021/07/22 11:07:00;;;;;;;3.33;1.85;;;34.10;35.90;;;;;;5052954;28;20048;-63
2021/07/22 11:09:45;;;;;;;3.60;1.70;;;33.70;36.90;;;;;;5051134;28;20025;-63
2021/07/22 11:12:42;;;;;;;4.00;1.73;;;33.70;37.10;;;;;;5049352;28;20029;-63
2021/07/22 11:15:35;;;;;;;4.93;1.77;;;34.10;36.00;;;;;;5048271;28;20443;-63
2021/07/22 11:18:21;;;;;;;3.15;1.70;;;34.00;36.10;;;;;;5040131;28;20029;-63
2021/07/22 11:20:47;;;;;;;4.18;2.00;;;34.00;36.60;;;;;;5051512;28;20430;-63
2021/07/22 11:23:15;;;;;;;4.07;2.10;;;34.20;37.10;;;;;;5055683;28;20032;-64
2021/07/22 11:25:47;;;;;;;4.47;1.80;;;34.40;36.60;;;;;;5048743;28;20415;-63
2021/07/22 11:28:15;;;;;;;3.78;1.75;;;34.60;36.20;;;;;;5031891;28;20104;-62
2021/07/22 11:30:57;;;;;;;3.50;1.80;;;34.80;36.00;;;;;;5032340;28;20109;-61
2021/07/22 11:33:22;;;;;;;3.20;1.60;;;35.00;35.90;;;;;;5032136;28;20794;-62
2021/07/22 11:35:57;;;;;;;3.53;1.70;;;35.30;36.30;;;;;;5046304;28;20036;-63
2021/07/22 11:38:23;;;;;;;2.70;1.60;;;35.60;35.50;;;;;;5015994;28;20032;-63
2021/07/22 11:40:49;;;;;;;4.28;1.70;;;35.80;35.30;;;;;;5035924;28;20131;-63
2021/07/22 11:43:36;;;;;;;3.90;1.92;;;36.20;35.40;;;;;;5036573;28;20148;-63
2021/07/22 11:46:07;;;;;;;4.10;1.58;;;36.50;34.70;;;;;;5052393;28;20017;-62
2021/07/22 11:48:32;;;;;;;;;;;36.50;34.90;;;;;;5052629;28;20417;-62
2021/07/22 11:51:03;;;;;;;3.35;1.65;;;36.30;34.20;;;;;;5049945;28;20022;-64
2021/07/22 11:53:29;;;;;;;;;;;36.40;34.30;;;;;;5047333;28;20036;-62
2021/07/22 11:55:57;;;;;;;3.00;1.58;;;36.20;34.50;;;;;;5043375;28;19908;-62
2021/07/22 11:58:23;;;;;;;3.13;1.73;;;36.50;34.70;;;;;;5039792;28;20036;-64
2021/07/22 12:00:49;;;;;;;2.83;1.50;;;36.80;34.40;;;;;;5038580;28;20047;-64
2021/07/22 12:03:15;;;;;;;3.42;1.70;;;37.00;34.10;;;;;;5051816;28;20041;-64
2021/07/22 12:05:41;;;;;;;3.83;1.80;;;37.00;34.20;;;;;;5051809;28;20033;-63
2021/07/22 12:08:16;;;;;;;3.80;1.77;;;36.50;33.50;;;;;;5051847;28;20144;-62
2021/07/22 12:10:43;;;;;;;3.65;1.80;;;35.70;33.60;;;;;;5052005;28;20033;-64
2021/07/22 12:13:09;;;;;;;4.72;1.90;;;35.20;34.20;;;;;;5056951;28;20443;-64
2021/07/22 12:15:39;;;;;;;4.20;1.88;;;35.30;34.50;;;;;;5051702;28;20021;-63
2021/07/22 12:18:06;;;;;;;3.88;1.80;;;35.30;34.70;;;;;;5051691;28;20086;-62
2021/07/22 12:20:34;;;;;;;3.42;1.70;;;35.20;34.60;;;;;;5048299;28;20464;-63
2021/07/22 12:23:20;;;;;;;3.65;1.80;;;35.20;34.20;;;;;;5040529;28;20021;-62
2021/07/22 12:26:00;;;;;;;4.07;1.65;;;34.80;34.20;;;;;;5033461;28;20476;-62
2021/07/22 12:28:26;;;;;;;4.25;1.80;;;34.60;34.70;;;;;;5040303;28;20029;-64
2021/07/22 12:30:53;;;;;;;3.40;1.83;;;35.00;35.10;;;;;;5040492;28;20486;-63
2021/07/22 12:33:24;;;;;;;3.97;1.80;;;35.50;34.70;;;;;;5045478;28;20152;-64
2021/07/22 12:35:50;;;;;;;3.88;1.48;;;36.00;34.50;;;;;;5043129;28;20021;-63
2021/07/22 12:38:19;;;;;;;3.75;1.80;;;36.60;34.10;;;;;;5037559;28;20021;-62
2021/07/22 12:40:56;;;;;;;3.50;1.50;;;36.90;33.30;;;;;;5051136;28;20428;-63
2021/07/22 12:43:26;;;;;;;3.80;1.60;;;37.30;32.80;;;;;;5031452;28;20034;-64
2021/07/22 12:45:54;;;;;;;4.40;1.92;;;37.40;32.80;;;;;;5039906;28;20026;-62
2021/07/22 12:48:39;;;;;;;3.47;1.70;;;37.30;33.20;;;;;;5043103;28;20056;-63
2021/07/22 12:51:16;;;;;;;4.30;1.90;;;37.20;34.00;;;;;;5052865;28;20543;-62